Estación de Los Colihues
Ultimos registro cada 15 minutos 59
| N° | Estación | Fecha / Hora | Temperatura | Humedad | Lluvia | Velocidad | Dirección | Radiación | Presion |
| 59 | Los Colihues | 31-08-2026 14:30 | 16 | 72,2 | 0 | 1 | 331 | 185,6 | 1014,9 |
| 58 | Los Colihues | 31-08-2026 14:15 | 16,8 | 72,6 | 0 | 1,5 | 298 | 205,6 | 1014,6 |
| 57 | Los Colihues | 31-08-2026 14:00 | 17,4 | 67,8 | 0 | 1,5 | 338 | 303,1 | 1014,8 |
| 56 | Los Colihues | 31-08-2026 13:45 | 18,6 | 63,9 | 0 | 1,5 | 25 | 413,1 | 1014,6 |
| 55 | Los Colihues | 31-08-2026 13:30 | 17,8 | 65,6 | 0 | 1 | 27 | 863,1 | 1014,6 |
| 54 | Los Colihues | 31-08-2026 13:15 | 16,9 | 69,3 | 0 | 1,5 | 24 | 244,4 | 1015,3 |
| 53 | Los Colihues | 31-08-2026 13:00 | 17,1 | 73,3 | 0 | 1,5 | 31 | 954,4 | 1014,8 |
| 52 | Los Colihues | 31-08-2026 12:45 | 16,7 | 71,9 | 0 | 1 | 28 | 371,9 | 1015,4 |
| 51 | Los Colihues | 31-08-2026 12:30 | 17,2 | 74,7 | 0 | 1 | 17 | 251,9 | 1015,4 |
| 50 | Los Colihues | 31-08-2026 12:15 | 16,4 | 77,1 | 0 | 0,5 | 18 | 265,6 | 1015,8 |
| 49 | Los Colihues | 31-08-2026 12:00 | 15,7 | 77,6 | 0 | 1,5 | 17 | 588,1 | 1015,4 |
| 48 | Los Colihues | 31-08-2026 11:45 | 15,2 | 80,3 | 0 | 1 | 21 | 634,4 | 1015,2 |
| 47 | Los Colihues | 31-08-2026 11:30 | 15,3 | 77,3 | 0 | 1 | 25 | 684,4 | 1015 |
| 46 | Los Colihues | 31-08-2026 11:15 | 14,2 | 79,4 | 0 | 1,5 | 32 | 401,9 | 1015,6 |
| 45 | Los Colihues | 31-08-2026 11:00 | 13,4 | 83,6 | 0 | 1 | 18 | 265,6 | 1016,1 |
| 44 | Los Colihues | 31-08-2026 10:45 | 13,3 | 82,9 | 0 | 0,5 | 21 | 269,4 | 1016,1 |
| 43 | Los Colihues | 31-08-2026 10:30 | 12,5 | 88,2 | 0 | 1 | 37 | 278,1 | 1016 |
| 42 | Los Colihues | 31-08-2026 10:15 | 11,7 | 87,5 | 0 | 1 | 38 | 195,6 | 1016,1 |
| 41 | Los Colihues | 31-08-2026 10:00 | 11,5 | 89,1 | 0 | 1 | 38 | 125,6 | 1016,1 |
| 40 | Los Colihues | 31-08-2026 09:45 | 11,2 | 91,1 | 0 | 0,5 | 44 | 121,9 | 1016,3 |
| 39 | Los Colihues | 31-08-2026 09:30 | 11 | 91,1 | 0 | 0,5 | 49 | 134,4 | 1016 |
| 38 | Los Colihues | 31-08-2026 09:15 | 10,8 | 92 | 0 | 0,5 | 34 | 90,6 | 1016 |
| 37 | Los Colihues | 31-08-2026 09:00 | 10,5 | 93,4 | 0 | 0 | 37 | 81,9 | 1015,9 |
| 36 | Los Colihues | 31-08-2026 08:45 | 10,2 | 93,3 | 0 | 0 | 42 | 56,9 | 1015,5 |
| 35 | Los Colihues | 31-08-2026 08:30 | 10,1 | 93,8 | 0 | 0 | 38 | 50,6 | 1015,4 |
| 34 | Los Colihues | 31-08-2026 08:15 | 9,8 | 95,5 | 0 | 0 | 25 | 76,9 | 1015,1 |
| 33 | Los Colihues | 31-08-2026 08:00 | 9,5 | 96,4 | 0 | 0 | 13 | 29,4 | 1014,9 |
| 32 | Los Colihues | 31-08-2026 07:45 | 9,4 | 97,4 | 0 | 0 | 8 | 25,6 | 1014,8 |
| 31 | Los Colihues | 31-08-2026 07:30 | 9,1 | 98,2 | 0 | 0 | 6 | 28,1 | 1014,4 |
| 30 | Los Colihues | 31-08-2026 07:15 | 9 | 98 | 0 | 0 | 6 | 4,4 | 1014,1 |
| 29 | Los Colihues | 31-08-2026 07:00 | 9 | 97,7 | 0 | 0 | 6 | 0,6 | 1013,9 |
| 28 | Los Colihues | 31-08-2026 06:45 | 9 | 98 | 0 | 0 | 3 | 0,6 | 1013,6 |
| 27 | Los Colihues | 31-08-2026 06:30 | 9,2 | 96,9 | 0 | 0 | 3 | 0,6 | 1013,4 |
| 26 | Los Colihues | 31-08-2026 06:15 | 9,5 | 96,3 | 0 | 0 | 333 | 0,6 | 1013,4 |
| 25 | Los Colihues | 31-08-2026 06:00 | 9,4 | 96,3 | 0 | 0 | 333 | 0,6 | 1013,6 |
| 24 | Los Colihues | 31-08-2026 05:45 | 9,5 | 95,9 | 0 | 0 | 350 | 0,6 | 1013,4 |
| 23 | Los Colihues | 31-08-2026 05:30 | 9,5 | 95,2 | 0 | 0 | 334 | 0,6 | 1013,1 |
| 22 | Los Colihues | 31-08-2026 05:15 | 9,5 | 95,8 | 0 | 0 | 347 | 0,6 | 1013 |
| 21 | Los Colihues | 31-08-2026 05:00 | 9,5 | 95,7 | 0 | 0 | 341 | 0,6 | 1012,8 |
| 20 | Los Colihues | 31-08-2026 04:45 | 9,4 | 96,5 | 0,2 | 0 | 17 | 0,6 | 1012,7 |
| 19 | Los Colihues | 31-08-2026 04:30 | 9,3 | 96,5 | 0 | 0 | 1 | 0,6 | 1012,5 |
| 18 | Los Colihues | 31-08-2026 04:15 | 9,4 | 96 | 0 | 0 | 39 | 0,6 | 1012,4 |
| 17 | Los Colihues | 31-08-2026 04:00 | 9,6 | 95,2 | 0 | 0 | 44 | 0,6 | 1012,2 |
| 16 | Los Colihues | 31-08-2026 03:45 | 9,8 | 94,5 | 0 | 0 | 49 | 0,6 | 1012,4 |
| 15 | Los Colihues | 31-08-2026 03:30 | 9,7 | 94,2 | 0 | 0 | 55 | 0,6 | 1012,2 |
| 14 | Los Colihues | 31-08-2026 03:15 | 9,8 | 93,4 | 0 | 0 | 49 | 0,6 | 1012,2 |
| 13 | Los Colihues | 31-08-2026 03:00 | 9,7 | 94,5 | 0 | 0 | 46 | 0,6 | 1012,5 |
| 12 | Los Colihues | 31-08-2026 02:45 | 9,9 | 93,1 | 0 | 0 | 52 | 0,6 | 1012,6 |
| 11 | Los Colihues | 31-08-2026 02:30 | 9,9 | 93 | 0 | 0,5 | 74 | 0,6 | 1012,6 |
| 10 | Los Colihues | 31-08-2026 02:15 | 10 | 92,9 | 0 | 1 | 81 | 0,6 | 1012,6 |
| 9 | Los Colihues | 31-08-2026 02:00 | 9,8 | 94,8 | 0,4 | 0 | 70 | 0,6 | 1012,7 |
| 8 | Los Colihues | 31-08-2026 01:45 | 9,7 | 96,6 | 0,2 | 0 | 44 | 0,6 | 1012,8 |
| 7 | Los Colihues | 31-08-2026 01:30 | 9,8 | 96 | 0,2 | 0 | 52 | 0,6 | 1012,8 |
| 6 | Los Colihues | 31-08-2026 01:15 | 9,6 | 96 | 0 | 0 | 62 | 0,6 | 1012,5 |
| 5 | Los Colihues | 31-08-2026 01:00 | 9,7 | 94,8 | 0 | 0 | 52 | 0,6 | 1012,2 |
| 4 | Los Colihues | 31-08-2026 00:45 | 9,6 | 95,3 | 0 | 0 | 49 | 0,6 | 1012 |
| 3 | Los Colihues | 31-08-2026 00:30 | 9,6 | 95,8 | 0 | 0 | 49 | 0,6 | 1011,9 |
| 2 | Los Colihues | 31-08-2026 00:15 | 9,7 | 95,4 | 0,2 | 0 | 44 | 0,6 | 1011,8 |
| 1 | Los Colihues | 31-08-2026 00:00 | 9,5 | 97,3 | 0 | 0 | 39 | 0,6 | 1012 |